createdAt,value
2018-12-25T00:00:40.773Z,7.43
2018-12-25T00:02:28.305Z,7.70
2018-12-25T00:04:16.219Z,6.80
2018-12-25T00:06:03.734Z,7.33
2018-12-25T00:07:51.191Z,7.13
2018-12-25T00:09:39.475Z,7.40
2018-12-25T00:11:27.101Z,6.20
2018-12-25T00:13:14.659Z,7.80
2018-12-25T00:15:02.406Z,7.30
2018-12-25T00:16:50.066Z,7.43
2018-12-25T00:18:38.240Z,7.43
2018-12-25T00:20:26.401Z,7.17
2018-12-25T00:22:14.706Z,7.20
2018-12-25T00:24:03.201Z,8.30
2018-12-25T00:25:51.602Z,7.80
2018-12-25T00:27:39.622Z,8.10
2018-12-25T00:29:27.398Z,6.80
2018-12-25T00:31:15.182Z,7.23
2018-12-25T00:33:03.390Z,7.53
2018-12-25T00:34:51.844Z,8.03
2018-12-25T00:36:39.962Z,7.80
2018-12-25T00:38:27.534Z,7.73
2018-12-25T00:40:15.581Z,7.37
2018-12-25T00:42:03.329Z,7.87
2018-12-25T00:43:51.071Z,8.20
2018-12-25T00:45:38.954Z,7.23
2018-12-25T00:47:26.439Z,7.63
2018-12-25T00:49:14.893Z,8.17
2018-12-25T00:51:02.647Z,7.37
2018-12-25T00:52:50.306Z,8.07
2018-12-25T00:54:38.348Z,7.27
2018-12-25T00:56:26.547Z,7.67
2018-12-25T00:58:13.966Z,7.53
2018-12-25T01:00:02.318Z,7.43
2018-12-25T01:01:50.370Z,7.57
2018-12-25T01:03:37.891Z,8.13
2018-12-25T01:05:25.448Z,8.20
2018-12-25T01:07:12.972Z,8.07
2018-12-25T01:09:00.456Z,7.87
2018-12-25T01:10:48.605Z,7.73
2018-12-25T01:12:36.074Z,8.70
2018-12-25T01:14:23.762Z,7.27
2018-12-25T01:16:11.314Z,7.93
2018-12-25T01:17:58.826Z,8.03
2018-12-25T01:19:47.203Z,8.37
2018-12-25T01:21:34.705Z,7.83
2018-12-25T01:23:22.141Z,8.47
2018-12-25T01:25:10.087Z,8.47
2018-12-25T01:26:58.535Z,8.90
2018-12-25T01:28:46.269Z,8.47
2018-12-25T01:30:34.128Z,8.53
2018-12-25T01:32:22.680Z,8.77
2018-12-25T01:34:10.213Z,8.60
2018-12-25T01:35:58.340Z,8.73
2018-12-25T01:37:46.222Z,8.47
2018-12-25T01:39:34.464Z,8.60
2018-12-25T01:41:22.931Z,9.00
2018-12-25T01:43:10.566Z,8.50
2018-12-25T01:44:58.720Z,8.77
2018-12-25T01:46:47.095Z,8.40
2018-12-25T01:48:35.390Z,7.90
2018-12-25T01:50:23.032Z,8.70
2018-12-25T01:52:10.852Z,8.97
2018-12-25T01:53:58.342Z,8.63
2018-12-25T01:55:45.833Z,8.30
2018-12-25T01:57:33.826Z,8.50
2018-12-25T01:59:22.170Z,9.00
2018-12-25T02:01:10.488Z,8.43
2018-12-25T02:02:58.106Z,7.93
2018-12-25T02:04:46.382Z,8.07
2018-12-25T02:06:33.955Z,9.10
2018-12-25T02:08:21.467Z,7.60
2018-12-25T02:10:09.699Z,8.73
2018-12-25T02:11:57.929Z,8.57
2018-12-25T02:13:45.575Z,8.67
2018-12-25T02:15:33.211Z,7.70
2018-12-25T02:17:21.413Z,8.43
2018-12-25T02:19:09.346Z,8.37
2018-12-25T02:20:57.354Z,8.90
2018-12-25T02:22:45.686Z,8.90
2018-12-25T02:24:34.063Z,9.07
2018-12-25T02:26:22.120Z,8.87
2018-12-25T02:28:10.297Z,9.10
2018-12-25T02:29:58.709Z,9.23
2018-12-25T02:31:46.249Z,9.40
2018-12-25T02:33:34.519Z,9.03
2018-12-25T02:35:22.077Z,8.50
2018-12-25T02:37:10.062Z,9.03
2018-12-25T02:38:59.928Z,8.87
2018-12-25T02:40:47.399Z,9.40
2018-12-25T02:42:34.926Z,10.10
2018-12-25T02:44:23.120Z,9.77
2018-12-25T02:46:11.466Z,9.80
2018-12-25T02:47:59.918Z,7.60
2018-12-25T02:49:50.329Z,8.47
2018-12-25T02:51:36.928Z,8.93
2018-12-25T02:53:24.626Z,9.03
2018-12-25T02:55:12.959Z,8.00
2018-12-25T02:57:00.957Z,9.43
2018-12-25T02:58:49.276Z,8.93
2018-12-25T03:00:37.349Z,9.10
2018-12-25T03:02:25.435Z,9.50
2018-12-25T03:04:12.918Z,9.50
2018-12-25T03:06:00.830Z,9.40
2018-12-25T03:07:48.960Z,9.80
2018-12-25T03:09:36.506Z,9.43
2018-12-25T03:11:24.442Z,9.57
2018-12-25T03:13:12.893Z,9.60
2018-12-25T03:15:01.142Z,9.77
2018-12-25T03:16:48.617Z,9.30
2018-12-25T03:18:36.776Z,9.93
2018-12-25T03:20:24.291Z,9.97
2018-12-25T03:22:12.217Z,8.77
2018-12-25T03:24:00.105Z,9.77
2018-12-25T03:25:48.365Z,9.63
2018-12-25T03:27:36.114Z,10.23
2018-12-25T03:29:23.645Z,9.07
2018-12-25T03:31:11.159Z,8.97
2018-12-25T03:32:58.847Z,10.47
2018-12-25T03:34:46.692Z,10.37
2018-12-25T03:36:34.336Z,10.00
2018-12-25T03:38:22.515Z,10.20
2018-12-25T03:40:10.054Z,10.20
2018-12-25T03:41:58.111Z,9.47
2018-12-25T03:43:46.329Z,10.03
2018-12-25T03:45:34.747Z,9.60
2018-12-25T03:47:23.055Z,9.13
2018-12-25T03:49:10.703Z,8.97
2018-12-25T03:50:58.204Z,10.27
2018-12-25T03:52:45.974Z,10.23
2018-12-25T03:54:34.002Z,9.70
2018-12-25T03:56:22.014Z,9.53
2018-12-25T03:58:10.347Z,9.23
2018-12-25T03:59:58.391Z,10.33
2018-12-25T04:01:46.755Z,9.03
2018-12-25T04:03:34.333Z,8.63
2018-12-25T04:05:21.887Z,9.70
2018-12-25T04:07:10.213Z,9.93
2018-12-25T04:08:58.010Z,9.17
2018-12-25T04:10:45.605Z,9.70
2018-12-25T04:12:34.935Z,9.83
2018-12-25T04:14:22.690Z,10.67
2018-12-25T04:16:11.008Z,9.30
2018-12-25T04:17:59.352Z,9.30
2018-12-25T04:19:46.933Z,10.83
2018-12-25T04:21:35.229Z,10.30
2018-12-25T04:23:23.043Z,9.97
2018-12-25T04:25:10.981Z,9.57
2018-12-25T04:26:59.404Z,8.77
2018-12-25T04:28:47.462Z,9.30
2018-12-25T04:30:35.210Z,9.47
2018-12-25T04:32:23.462Z,8.77
2018-12-25T04:34:11.087Z,9.40
2018-12-25T04:35:58.538Z,8.87
2018-12-25T04:37:46.648Z,9.43
2018-12-25T04:39:35.083Z,8.90
2018-12-25T04:41:23.493Z,8.73
2018-12-25T04:43:11.485Z,9.40
2018-12-25T04:44:59.746Z,9.27
2018-12-25T04:46:47.698Z,8.27
2018-12-25T04:48:35.604Z,8.83
2018-12-25T04:50:29.163Z,9.40
2018-12-25T04:52:13.441Z,9.07
2018-12-25T04:54:01.991Z,8.53
2018-12-25T04:55:49.896Z,8.73
2018-12-25T04:57:37.462Z,8.93
2018-12-25T04:59:25.551Z,8.33
2018-12-25T05:01:13.895Z,7.87
2018-12-25T05:03:01.942Z,8.03
2018-12-25T05:04:50.385Z,8.43
2018-12-25T05:06:38.094Z,8.43
2018-12-25T05:08:26.340Z,9.07
2018-12-25T05:10:13.916Z,8.60
2018-12-25T05:12:02.271Z,7.83
2018-12-25T05:13:49.750Z,7.77
2018-12-25T05:15:37.193Z,8.87
2018-12-25T05:17:25.302Z,8.37
2018-12-25T05:19:13.358Z,8.07
2018-12-25T05:21:01.233Z,8.77
2018-12-25T05:22:49.100Z,8.67
2018-12-25T05:24:37.006Z,7.87
2018-12-25T05:26:25.153Z,8.23
2018-12-25T05:28:13.336Z,7.60
2018-12-25T05:30:01.274Z,8.27
2018-12-25T05:31:49.575Z,8.13
2018-12-25T05:33:37.415Z,8.10
2018-12-25T05:35:25.842Z,7.90
2018-12-25T05:37:13.757Z,8.47
2018-12-25T05:39:01.990Z,8.27
2018-12-25T05:40:49.685Z,7.90
2018-12-25T05:42:37.831Z,8.20
2018-12-25T05:44:25.853Z,8.33
2018-12-25T05:46:13.247Z,9.10
2018-12-25T05:48:01.354Z,8.60
2018-12-25T05:49:49.850Z,8.53
2018-12-25T05:51:38.273Z,8.40
2018-12-25T05:53:25.751Z,8.40
2018-12-25T05:55:13.726Z,9.10
2018-12-25T05:57:01.317Z,7.43
2018-12-25T05:58:49.457Z,8.43
2018-12-25T06:00:37.461Z,8.70
2018-12-25T06:02:25.697Z,8.20
2018-12-25T06:04:13.435Z,7.90
2018-12-25T06:06:01.490Z,9.40
2018-12-25T06:07:49.712Z,8.50
2018-12-25T06:09:37.503Z,7.93
2018-12-25T06:11:25.832Z,8.93
2018-12-25T06:13:13.687Z,8.43
2018-12-25T06:15:01.765Z,8.37
2018-12-25T06:16:49.295Z,9.07
2018-12-25T06:18:37.500Z,8.27
2018-12-25T06:20:25.905Z,9.33
2018-12-25T06:22:13.438Z,8.60
2018-12-25T06:24:00.873Z,9.00
2018-12-25T06:25:48.842Z,8.53
2018-12-25T06:27:36.892Z,9.13
2018-12-25T06:29:24.926Z,8.97
2018-12-25T06:31:12.819Z,9.30
2018-12-25T06:33:00.625Z,9.57
2018-12-25T06:34:48.147Z,9.03
2018-12-25T06:36:36.154Z,8.47
2018-12-25T06:38:23.679Z,8.33
2018-12-25T06:40:11.935Z,8.73
2018-12-25T06:42:00.210Z,8.67
2018-12-25T06:43:47.750Z,8.47
2018-12-25T06:45:35.884Z,8.87
2018-12-25T06:47:24.238Z,8.47
2018-12-25T06:49:12.526Z,10.67
2018-12-25T06:51:03.995Z,9.27
2018-12-25T06:52:50.212Z,8.40
2018-12-25T06:54:39.443Z,8.63
2018-12-25T06:56:27.627Z,9.47
2018-12-25T06:58:15.349Z,9.40
2018-12-25T07:00:02.953Z,9.37
2018-12-25T07:01:50.530Z,8.10
2018-12-25T07:03:38.694Z,8.57
2018-12-25T07:05:27.107Z,8.50
2018-12-25T07:07:14.565Z,9.30
2018-12-25T07:09:02.926Z,8.60
2018-12-25T07:10:51.234Z,7.93
2018-12-25T07:12:38.756Z,7.80
2018-12-25T07:14:26.751Z,8.97
2018-12-25T07:16:14.414Z,8.93
2018-12-25T07:18:01.991Z,8.57
2018-12-25T07:19:50.115Z,8.67
2018-12-25T07:21:37.642Z,8.03
2018-12-25T07:23:25.477Z,8.50
2018-12-25T07:25:13.585Z,8.83
2018-12-25T07:27:01.162Z,8.67
2018-12-25T07:28:49.613Z,8.77
2018-12-25T07:30:37.453Z,8.67
2018-12-25T07:32:25.225Z,8.57
2018-12-25T07:34:13.601Z,8.97
2018-12-25T07:36:01.986Z,9.00
2018-12-25T07:37:50.898Z,8.23
2018-12-25T07:39:39.198Z,8.77
2018-12-25T07:41:27.401Z,8.43
2018-12-25T07:43:15.196Z,8.60
2018-12-25T07:45:03.374Z,9.67
2018-12-25T07:46:51.289Z,9.47
2018-12-25T07:48:39.525Z,8.93
2018-12-25T07:50:27.661Z,9.00
2018-12-25T07:52:15.525Z,9.23
2018-12-25T07:54:03.697Z,9.00
2018-12-25T07:55:52.071Z,8.30
2018-12-25T07:57:39.674Z,8.63
2018-12-25T07:59:27.226Z,8.80
2018-12-25T08:01:15.197Z,8.20
2018-12-25T08:03:03.635Z,9.00
2018-12-25T08:04:51.489Z,10.17
2018-12-25T08:06:39.862Z,9.03
2018-12-25T08:08:27.437Z,9.47
2018-12-25T08:10:15.262Z,9.97
2018-12-25T08:12:03.526Z,9.23
2018-12-25T08:13:51.686Z,9.40
2018-12-25T08:15:40.110Z,9.17
2018-12-25T08:17:28.276Z,9.70
2018-12-25T08:19:16.630Z,9.73
2018-12-25T08:21:04.851Z,9.43
2018-12-25T08:22:52.441Z,10.17
2018-12-25T08:24:39.963Z,8.80
2018-12-25T08:26:28.359Z,8.50
2018-12-25T08:28:16.687Z,8.07
2018-12-25T08:30:04.949Z,9.20
2018-12-25T08:31:53.240Z,9.27
2018-12-25T08:33:41.061Z,8.80
2018-12-25T08:35:29.353Z,9.63
2018-12-25T08:37:17.519Z,9.37
2018-12-25T08:39:05.350Z,10.17
2018-12-25T08:40:52.959Z,8.77
2018-12-25T08:42:40.501Z,9.07
2018-12-25T08:44:28.037Z,9.67
2018-12-25T08:46:15.975Z,8.93
2018-12-25T08:48:03.656Z,8.93
2018-12-25T08:49:51.338Z,8.83
2018-12-25T08:51:38.826Z,9.37
2018-12-25T08:53:27.222Z,9.73
2018-12-25T08:55:15.284Z,9.57
2018-12-25T08:57:02.915Z,9.33
2018-12-25T08:58:50.618Z,8.43
2018-12-25T09:00:38.443Z,9.07
2018-12-25T09:02:26.765Z,9.00
2018-12-25T09:04:14.963Z,9.17
2018-12-25T09:06:02.441Z,9.30
2018-12-25T09:07:50.467Z,8.83
2018-12-25T09:09:38.049Z,9.93
2018-12-25T09:11:25.566Z,9.93
2018-12-25T09:13:13.990Z,8.60
2018-12-25T09:15:01.676Z,10.00
2018-12-25T09:16:49.172Z,9.30
2018-12-25T09:18:36.855Z,9.23
2018-12-25T09:20:25.279Z,9.33
2018-12-25T09:22:12.835Z,9.33
2018-12-25T09:24:00.939Z,9.57
2018-12-25T09:25:48.686Z,9.23
2018-12-25T09:27:37.003Z,9.40
2018-12-25T09:29:24.405Z,8.93
2018-12-25T09:31:12.658Z,7.80
2018-12-25T09:33:00.502Z,8.43
2018-12-25T09:34:48.454Z,8.47
2018-12-25T09:36:36.698Z,9.20
2018-12-25T09:38:24.387Z,8.67
2018-12-25T09:40:12.502Z,8.90
2018-12-25T09:42:00.547Z,8.50
2018-12-25T09:43:48.501Z,8.67
2018-12-25T09:45:35.928Z,8.57
2018-12-25T09:47:23.935Z,9.30
2018-12-25T09:49:12.077Z,8.93
2018-12-25T09:51:00.431Z,9.87
2018-12-25T09:52:48.132Z,9.60
2018-12-25T09:54:35.934Z,10.07
2018-12-25T09:56:24.086Z,9.27
2018-12-25T09:58:12.667Z,9.60
2018-12-25T10:00:01.023Z,9.57
2018-12-25T10:01:48.905Z,10.23
2018-12-25T10:03:37.067Z,9.93
2018-12-25T10:05:24.844Z,9.70
2018-12-25T10:07:13.077Z,10.23
2018-12-25T10:09:01.481Z,8.90
2018-12-25T10:10:49.741Z,9.30
2018-12-25T10:12:37.879Z,10.43
2018-12-25T10:14:25.624Z,9.53
2018-12-25T10:16:13.098Z,8.87
2018-12-25T10:18:01.060Z,9.37
2018-12-25T10:19:49.300Z,9.00
2018-12-25T10:21:37.475Z,8.13
2018-12-25T10:23:25.013Z,9.70
2018-12-25T10:25:12.861Z,9.13
2018-12-25T10:27:00.296Z,9.27
2018-12-25T10:28:48.006Z,9.87
2018-12-25T10:30:36.505Z,9.33
2018-12-25T10:32:24.630Z,8.80
2018-12-25T10:34:12.467Z,9.60
2018-12-25T10:36:00.785Z,10.50
2018-12-25T10:37:48.764Z,9.07
2018-12-25T10:39:36.980Z,10.57
2018-12-25T10:41:24.863Z,9.10
2018-12-25T10:43:13.263Z,9.33
2018-12-25T10:45:00.837Z,9.60
2018-12-25T10:46:49.166Z,10.00
2018-12-25T10:48:37.273Z,8.90
2018-12-25T10:50:25.335Z,9.33
2018-12-25T10:52:13.017Z,8.77
2018-12-25T10:54:01.398Z,9.40
2018-12-25T10:55:48.954Z,9.30
2018-12-25T10:57:36.558Z,8.97
2018-12-25T10:59:24.866Z,8.87
2018-12-25T11:01:13.302Z,8.53
2018-12-25T11:03:01.053Z,8.47
2018-12-25T11:04:49.051Z,7.67
2018-12-25T11:06:37.336Z,8.80
2018-12-25T11:08:24.909Z,8.30
2018-12-25T11:10:13.169Z,8.63
2018-12-25T11:12:01.526Z,9.10
2018-12-25T11:13:49.814Z,8.93
2018-12-25T11:15:37.334Z,8.57
2018-12-25T11:17:25.370Z,8.57
2018-12-25T11:19:13.227Z,8.73
2018-12-25T11:21:00.875Z,8.23
2018-12-25T11:22:49.269Z,7.47
2018-12-25T11:24:37.339Z,8.13
2018-12-25T11:26:25.229Z,7.93
2018-12-25T11:28:13.138Z,9.40
2018-12-25T11:30:01.456Z,8.77
2018-12-25T11:31:55.761Z,8.90
2018-12-25T11:49:35.501Z,7.40
2018-12-25T11:51:23.785Z,8.07
2018-12-25T11:53:11.914Z,8.43
2018-12-25T11:54:59.790Z,8.83
2018-12-25T11:56:47.590Z,8.27
2018-12-25T11:58:35.670Z,9.40
2018-12-25T12:00:23.753Z,8.17
2018-12-25T12:02:17.014Z,8.83
2018-12-25T12:04:01.520Z,8.63
2018-12-25T12:05:49.593Z,7.93
2018-12-25T12:07:37.301Z,8.70
2018-12-25T12:09:24.916Z,8.10
2018-12-25T12:11:12.528Z,8.37
2018-12-25T12:13:00.302Z,9.03
2018-12-25T12:14:48.806Z,8.20
2018-12-25T12:16:36.655Z,9.37
2018-12-25T12:18:24.482Z,9.03
2018-12-25T12:20:12.723Z,8.00
2018-12-25T12:22:01.033Z,8.70
2018-12-25T12:23:49.911Z,8.00
2018-12-25T12:25:38.162Z,9.40
2018-12-25T12:27:25.768Z,8.90
2018-12-25T12:29:13.386Z,8.57
2018-12-25T12:31:00.884Z,7.67
2018-12-25T12:32:48.886Z,7.20
2018-12-25T12:34:37.164Z,7.90
2018-12-25T12:36:25.199Z,8.57
2018-12-25T12:38:12.841Z,8.03
2018-12-25T12:40:01.188Z,8.50
2018-12-25T12:41:49.893Z,8.83
2018-12-25T12:43:38.030Z,8.07
2018-12-25T12:45:26.043Z,8.80
2018-12-25T12:47:13.562Z,8.23
2018-12-25T12:49:01.303Z,8.50
2018-12-25T12:50:49.266Z,8.43
2018-12-25T12:52:45.211Z,8.00
2018-12-25T12:54:26.887Z,8.43
2018-12-25T12:56:15.039Z,8.67
2018-12-25T12:58:03.249Z,8.27
2018-12-25T12:59:50.721Z,8.00
2018-12-25T13:01:38.332Z,8.47
2018-12-25T13:03:26.635Z,8.43
2018-12-25T13:05:14.383Z,7.60
2018-12-25T13:07:02.062Z,7.93
2018-12-25T13:08:50.057Z,8.43
2018-12-25T13:10:38.023Z,7.17
2018-12-25T13:12:25.446Z,7.77
2018-12-25T13:14:13.337Z,8.17
2018-12-25T13:16:01.595Z,8.00
2018-12-25T13:17:49.183Z,7.77
2018-12-25T13:19:37.064Z,8.37
2018-12-25T13:21:25.033Z,8.63
2018-12-25T13:23:13.376Z,8.87
2018-12-25T13:25:01.882Z,8.00
2018-12-25T13:26:49.549Z,8.03
2018-12-25T13:28:37.427Z,8.17
2018-12-25T13:30:25.351Z,7.83
2018-12-25T13:32:14.167Z,8.20
2018-12-25T13:34:04.365Z,8.60
2018-12-25T13:35:52.785Z,8.33
2018-12-25T13:37:40.423Z,7.73
2018-12-25T13:39:28.465Z,7.10
2018-12-25T13:41:16.814Z,7.17
2018-12-25T13:43:04.439Z,7.40
2018-12-25T13:44:52.505Z,7.63
2018-12-25T13:46:40.422Z,7.40
2018-12-25T13:48:27.938Z,7.50
2018-12-25T13:50:15.810Z,7.17
2018-12-25T13:52:03.710Z,8.03
2018-12-25T13:53:51.389Z,8.13
2018-12-25T13:55:39.248Z,8.00
2018-12-25T13:57:26.751Z,6.93
2018-12-25T13:59:14.941Z,7.73
2018-12-25T14:01:03.413Z,7.50
2018-12-25T14:02:51.685Z,8.00
2018-12-25T14:04:40.114Z,7.23
2018-12-25T14:06:28.317Z,6.90
2018-12-25T14:08:16.814Z,7.50
2018-12-25T14:10:06.977Z,7.27
2018-12-25T14:11:55.511Z,7.37
2018-12-25T14:13:43.147Z,8.13
2018-12-25T14:15:32.674Z,6.97
2018-12-25T14:17:21.278Z,7.10
2018-12-25T14:19:08.758Z,7.30
2018-12-25T14:20:56.850Z,6.93
2018-12-25T14:22:45.046Z,6.97
2018-12-25T14:24:34.088Z,6.83
2018-12-25T14:26:22.497Z,7.13
2018-12-25T14:28:10.001Z,7.13
2018-12-25T14:29:58.057Z,7.37
2018-12-25T14:31:45.663Z,6.87
2018-12-25T14:33:33.209Z,7.87
2018-12-25T14:35:21.270Z,7.80
2018-12-25T14:37:09.322Z,6.97
2018-12-25T14:38:57.590Z,7.20
2018-12-25T14:40:45.776Z,6.53
2018-12-25T14:42:34.206Z,7.43
2018-12-25T14:44:22.319Z,7.53
2018-12-25T14:46:10.398Z,7.10
2018-12-25T14:47:58.463Z,6.83
2018-12-25T14:49:46.553Z,7.43
2018-12-25T14:51:34.698Z,7.70
2018-12-25T14:53:22.230Z,6.80
2018-12-25T14:55:09.836Z,8.23
2018-12-25T14:56:57.410Z,7.43
2018-12-25T14:58:45.714Z,7.87
2018-12-25T15:00:33.875Z,7.50
2018-12-25T15:02:23.134Z,8.03
2018-12-25T15:04:11.588Z,7.80
2018-12-25T15:05:59.913Z,7.50
2018-12-25T15:07:48.270Z,8.10
2018-12-25T15:09:35.771Z,7.43
2018-12-25T15:11:23.946Z,7.57
2018-12-25T15:13:11.470Z,8.10
2018-12-25T15:14:59.994Z,7.63
2018-12-25T15:16:47.507Z,7.67
2018-12-25T15:18:35.299Z,7.73
2018-12-25T15:20:23.250Z,8.17
2018-12-25T15:22:10.751Z,7.33
2018-12-25T15:23:58.870Z,8.10
2018-12-25T15:25:47.089Z,8.47
2018-12-25T15:27:36.264Z,6.83
2018-12-25T15:29:24.590Z,7.57
2018-12-25T15:31:12.920Z,7.20
2018-12-25T15:33:01.563Z,7.83
2018-12-25T15:34:49.762Z,7.33
2018-12-25T15:36:37.742Z,6.70
2018-12-25T15:38:26.205Z,7.33
2018-12-25T15:40:13.845Z,7.83
2018-12-25T15:42:01.943Z,7.33
2018-12-25T15:43:50.265Z,8.43
2018-12-25T15:45:38.450Z,7.70
2018-12-25T15:47:26.560Z,7.67
2018-12-25T15:49:14.218Z,8.37
2018-12-25T15:51:02.434Z,8.83
2018-12-25T15:52:50.620Z,8.00
2018-12-25T15:54:39.088Z,8.20
2018-12-25T15:56:27.465Z,8.73
2018-12-25T15:58:15.863Z,7.97
2018-12-25T16:00:03.369Z,8.57
2018-12-25T16:01:51.541Z,8.70
2018-12-25T16:03:39.750Z,8.33
2018-12-25T16:05:27.342Z,8.53
2018-12-25T16:07:15.400Z,8.30
2018-12-25T16:09:04.442Z,7.43
2018-12-25T16:10:52.659Z,8.03
2018-12-25T16:12:40.301Z,8.27
2018-12-25T16:14:28.001Z,8.90
2018-12-25T16:16:15.609Z,8.57
2018-12-25T16:18:03.172Z,9.77
2018-12-25T16:19:51.817Z,10.10
2018-12-25T16:21:39.482Z,8.80
2018-12-25T16:23:27.904Z,8.70
2018-12-25T16:25:15.879Z,8.90
2018-12-25T16:27:04.348Z,9.50
2018-12-25T16:28:52.057Z,9.17
2018-12-25T16:30:39.629Z,9.30
2018-12-25T16:32:27.515Z,9.73
2018-12-25T16:34:15.059Z,9.47
2018-12-25T16:36:03.153Z,8.90
2018-12-25T16:37:52.442Z,8.83
2018-12-25T16:39:40.048Z,9.17
2018-12-25T16:41:28.474Z,9.97
2018-12-25T16:43:16.033Z,10.07
2018-12-25T16:45:03.760Z,9.33
2018-12-25T16:46:53.414Z,10.67
2018-12-25T16:48:40.917Z,9.73
2018-12-25T16:50:29.271Z,9.70
2018-12-25T16:52:17.789Z,9.50
2018-12-25T16:54:05.746Z,9.60
2018-12-25T16:55:53.373Z,10.47
2018-12-25T16:57:41.007Z,10.63
2018-12-25T16:59:28.515Z,10.47
2018-12-25T17:01:16.067Z,9.73
2018-12-25T17:03:03.875Z,9.97
2018-12-25T17:04:51.996Z,10.10
2018-12-25T17:06:40.213Z,9.60
2018-12-25T17:08:27.888Z,9.47
2018-12-25T17:10:15.487Z,10.37
2018-12-25T17:12:03.426Z,10.10
2018-12-25T17:13:51.838Z,10.40
2018-12-25T17:15:39.574Z,10.43
2018-12-25T17:17:27.834Z,10.50
2018-12-25T17:19:16.222Z,10.47
2018-12-25T17:21:03.844Z,10.20
2018-12-25T17:22:51.792Z,9.83
2018-12-25T17:24:39.733Z,9.60
2018-12-25T17:26:28.577Z,10.43
2018-12-25T17:28:16.501Z,10.17
2018-12-25T17:30:04.015Z,9.63
2018-12-25T17:31:52.063Z,10.00
2018-12-25T17:33:39.766Z,10.67
2018-12-25T17:35:27.440Z,10.97
2018-12-25T17:37:15.900Z,10.00
2018-12-25T17:39:04.885Z,10.73
2018-12-25T17:40:53.219Z,11.13
2018-12-25T17:42:41.028Z,9.83
2018-12-25T17:44:29.204Z,10.80
2018-12-25T17:46:17.577Z,9.83
2018-12-25T17:48:06.090Z,10.03
2018-12-25T17:49:53.666Z,10.47
2018-12-25T17:51:41.868Z,10.40
2018-12-25T17:53:32.809Z,11.90
2018-12-25T17:55:21.313Z,10.13
2018-12-25T17:57:11.603Z,11.00
2018-12-25T17:59:00.009Z,9.90
2018-12-25T18:00:48.145Z,10.50
2018-12-25T18:02:36.728Z,11.37
2018-12-25T18:04:24.296Z,11.20
2018-12-25T18:06:14.363Z,11.20
2018-12-25T18:08:03.005Z,11.83
2018-12-25T18:09:50.632Z,11.80
2018-12-25T18:11:26.806Z,11.67
2018-12-25T18:18:04.248Z,11.53
2018-12-25T18:19:52.494Z,11.40
2018-12-25T18:21:41.044Z,12.57
2018-12-25T18:23:29.649Z,10.67
2018-12-25T18:25:19.075Z,10.90
2018-12-25T18:27:06.676Z,11.90
2018-12-25T18:28:54.683Z,11.67
2018-12-25T18:30:42.485Z,12.57
2018-12-25T18:32:30.938Z,11.20
2018-12-25T18:34:19.261Z,12.20
2018-12-25T18:36:07.426Z,10.00
2018-12-25T18:37:55.974Z,10.67
2018-12-25T18:39:44.050Z,11.47
2018-12-25T18:41:32.283Z,11.77
2018-12-25T18:43:20.425Z,11.83
2018-12-25T18:45:09.218Z,13.53
2018-12-25T18:46:57.367Z,13.23
2018-12-25T18:48:45.415Z,13.53
2018-12-25T18:50:33.794Z,14.03
2018-12-25T18:52:25.332Z,12.93
2018-12-25T18:54:12.803Z,11.87
2018-12-25T18:56:00.329Z,14.10
2018-12-25T18:57:48.365Z,12.50
2018-12-25T18:59:36.539Z,12.40
2018-12-25T19:01:26.880Z,12.77
2018-12-25T19:03:14.855Z,13.17
2018-12-25T19:05:03.299Z,13.53
2018-12-25T19:06:51.047Z,14.37
2018-12-25T19:08:39.370Z,12.57
2018-12-25T19:10:27.056Z,13.13
2018-12-25T19:12:15.312Z,14.43
2018-12-25T19:14:02.934Z,14.23
2018-12-25T19:15:51.228Z,13.30
2018-12-25T19:17:39.727Z,13.37
2018-12-25T19:19:27.631Z,12.73
2018-12-25T19:21:15.825Z,14.20
2018-12-25T19:23:03.497Z,12.30
2018-12-25T19:24:50.957Z,12.60
2018-12-25T19:26:38.509Z,12.60
2018-12-25T19:28:26.443Z,13.00
2018-12-25T19:30:14.495Z,13.07
2018-12-25T19:32:02.110Z,13.00
2018-12-25T19:33:49.646Z,14.20
2018-12-25T19:35:37.858Z,13.70
2018-12-25T19:37:26.243Z,12.53
2018-12-25T19:39:14.821Z,14.67
2018-12-25T19:41:02.699Z,13.87
2018-12-25T19:42:50.186Z,14.60
2018-12-25T19:44:37.971Z,14.70
2018-12-25T19:46:26.239Z,14.33
2018-12-25T19:48:14.361Z,12.73
2018-12-25T19:50:01.805Z,13.33
2018-12-25T19:51:49.643Z,13.07
2018-12-25T19:53:38.006Z,13.60
2018-12-25T19:55:26.272Z,13.70
2018-12-25T19:57:14.639Z,13.80
2018-12-25T19:59:02.151Z,14.73
2018-12-25T20:00:50.092Z,14.20
2018-12-25T20:02:38.134Z,14.40
2018-12-25T20:04:26.007Z,13.50
2018-12-25T20:06:14.063Z,12.47
2018-12-25T20:08:02.447Z,13.67
2018-12-25T20:09:50.096Z,14.03
2018-12-25T20:11:37.796Z,14.33
2018-12-25T20:13:25.806Z,14.30
2018-12-25T20:15:13.546Z,14.07
2018-12-25T20:17:01.866Z,13.57
2018-12-25T20:18:49.488Z,13.80
2018-12-25T20:20:37.829Z,14.07
2018-12-25T20:22:25.608Z,14.67
2018-12-25T20:24:19.332Z,14.60
2018-12-25T20:26:02.269Z,13.93
2018-12-25T20:27:50.252Z,13.37
2018-12-25T20:29:38.099Z,14.40
2018-12-25T20:31:26.380Z,14.73
2018-12-25T20:33:14.218Z,14.43
2018-12-25T20:35:02.655Z,14.47
2018-12-25T20:36:50.859Z,13.57
2018-12-25T20:38:38.573Z,14.90
2018-12-25T20:40:26.593Z,14.43
2018-12-25T20:42:14.581Z,12.77
2018-12-25T20:44:03.019Z,13.33
2018-12-25T20:45:50.602Z,14.07
2018-12-25T20:47:38.393Z,12.63
2018-12-25T20:49:25.966Z,14.17
2018-12-25T20:51:13.470Z,13.00
2018-12-25T20:53:01.298Z,14.20
2018-12-25T20:54:49.572Z,13.97
2018-12-25T20:56:37.112Z,12.83
2018-12-25T20:58:24.899Z,13.10
2018-12-25T21:00:12.435Z,14.20
2018-12-25T21:02:00.808Z,13.03
2018-12-25T21:03:48.260Z,13.80
2018-12-25T21:05:36.709Z,13.97
2018-12-25T21:07:24.229Z,14.23
2018-12-25T21:09:11.910Z,14.03
2018-12-25T21:10:59.858Z,13.37
2018-12-25T21:12:47.470Z,13.40
2018-12-25T21:14:35.634Z,14.53
2018-12-25T21:16:23.091Z,14.30
2018-12-25T21:18:11.452Z,13.87
2018-12-25T21:19:59.460Z,13.10
2018-12-25T21:21:47.046Z,12.80
2018-12-25T21:23:35.015Z,14.73
2018-12-25T21:25:23.273Z,13.97
2018-12-25T21:27:10.754Z,14.23
2018-12-25T21:28:58.218Z,14.77
2018-12-25T21:30:45.866Z,15.67
2018-12-25T21:32:33.345Z,14.97
2018-12-25T21:34:21.022Z,14.43
2018-12-25T21:36:08.486Z,15.87
2018-12-25T21:37:56.662Z,14.60
2018-12-25T21:39:44.932Z,15.30
2018-12-25T21:41:33.159Z,14.73
2018-12-25T21:43:20.771Z,14.63
2018-12-25T21:45:08.893Z,14.93
2018-12-25T21:46:56.877Z,14.73
2018-12-25T21:48:44.519Z,15.30
2018-12-25T21:50:32.034Z,15.97
2018-12-25T21:52:19.915Z,15.13
2018-12-25T21:54:08.125Z,15.80
2018-12-25T21:55:56.278Z,15.47
2018-12-25T21:57:44.650Z,14.60
2018-12-25T21:59:32.594Z,15.10
2018-12-25T22:01:20.202Z,16.17
2018-12-25T22:03:07.778Z,16.53
2018-12-25T22:04:55.591Z,16.67
2018-12-25T22:06:43.467Z,15.87
2018-12-25T22:08:31.250Z,15.90
2018-12-25T22:10:18.813Z,16.17
2018-12-25T22:12:06.387Z,15.97
2018-12-25T22:13:54.983Z,16.90
2018-12-25T22:15:42.568Z,16.37
2018-12-25T22:17:30.220Z,16.20
2018-12-25T22:19:17.742Z,15.57
2018-12-25T22:21:05.848Z,14.73
2018-12-25T22:22:53.259Z,15.80
2018-12-25T22:24:40.747Z,15.90
2018-12-25T22:26:28.278Z,15.57
2018-12-25T22:28:15.809Z,15.70
2018-12-25T22:30:04.025Z,15.53
2018-12-25T22:31:51.555Z,16.10
2018-12-25T22:33:39.783Z,15.40
2018-12-25T22:35:27.705Z,16.03
2018-12-25T22:37:15.367Z,17.00
2018-12-25T22:39:03.392Z,16.77
2018-12-25T22:40:51.437Z,16.07
2018-12-25T22:42:38.960Z,15.27
2018-12-25T22:44:27.046Z,15.60
2018-12-25T22:46:15.664Z,15.07
2018-12-25T22:48:03.856Z,16.60
2018-12-25T22:49:51.347Z,16.03
2018-12-25T22:51:39.515Z,15.97
2018-12-25T22:53:27.721Z,15.73
2018-12-25T22:55:15.283Z,16.83
2018-12-25T22:57:03.366Z,15.70
2018-12-25T22:58:51.737Z,15.57
2018-12-25T23:00:40.224Z,16.50
2018-12-25T23:02:46.846Z,15.97
2018-12-25T23:04:34.921Z,15.57
2018-12-25T23:06:23.207Z,16.27
2018-12-25T23:08:11.570Z,15.20
2018-12-25T23:09:59.022Z,16.63
2018-12-25T23:11:47.426Z,15.67
2018-12-25T23:13:34.971Z,15.60
2018-12-25T23:15:22.670Z,15.90
2018-12-25T23:17:11.011Z,16.30
2018-12-25T23:18:59.389Z,16.13
2018-12-25T23:20:47.697Z,17.57
2018-12-25T23:22:36.213Z,16.40
2018-12-25T23:24:23.695Z,17.33
2018-12-25T23:26:11.738Z,16.67
2018-12-25T23:27:59.903Z,14.90
2018-12-25T23:29:48.346Z,16.83
2018-12-25T23:31:36.206Z,15.80
2018-12-25T23:33:24.445Z,16.43
2018-12-25T23:35:12.889Z,17.27
2018-12-25T23:37:01.152Z,17.33
2018-12-25T23:38:48.685Z,16.33
2018-12-25T23:40:36.925Z,16.80
2018-12-25T23:42:25.240Z,15.30
2018-12-25T23:44:12.933Z,16.17
2018-12-25T23:46:00.490Z,17.10
2018-12-25T23:47:48.654Z,15.90
2018-12-25T23:49:36.654Z,16.07
2018-12-25T23:51:25.023Z,16.57
2018-12-25T23:53:13.448Z,17.73
2018-12-25T23:55:01.580Z,15.57
2018-12-25T23:56:49.938Z,17.47
2018-12-25T23:58:38.367Z,15.33
